sensor_id;sensor_type;location;lat;lon;timestamp;pressure;altitude;pressure_sealevel;temperature;humidity
63321;BME280;49449;48.800;9.534;2023-11-21T00:00:17;97982.22;;;9.12;46.44
63321;BME280;49449;48.800;9.534;2023-11-21T00:02:45;97978.09;;;9.16;46.34
63321;BME280;49449;48.800;9.534;2023-11-21T00:05:14;97969.94;;;9.18;46.37
63321;BME280;49449;48.800;9.534;2023-11-21T00:07:43;97971.78;;;9.17;46.61
63321;BME280;49449;48.800;9.534;2023-11-21T00:10:12;97973.75;;;9.22;46.57
63321;BME280;49449;48.800;9.534;2023-11-21T00:12:42;97971.56;;;9.19;46.43
63321;BME280;49449;48.800;9.534;2023-11-21T00:15:10;97981.22;;;9.13;46.32
63321;BME280;49449;48.800;9.534;2023-11-21T00:17:38;97983.91;;;9.18;46.27
63321;BME280;49449;48.800;9.534;2023-11-21T00:20:07;97976.59;;;9.20;46.14
63321;BME280;49449;48.800;9.534;2023-11-21T00:22:35;97970.28;;;9.21;46.42
63321;BME280;49449;48.800;9.534;2023-11-21T00:25:03;97973.81;;;9.27;46.25
63321;BME280;49449;48.800;9.534;2023-11-21T00:27:33;97969.38;;;9.27;46.96
63321;BME280;49449;48.800;9.534;2023-11-21T00:30:01;97968.56;;;9.27;46.65
63321;BME280;49449;48.800;9.534;2023-11-21T00:32:30;97966.75;;;9.27;46.59
63321;BME280;49449;48.800;9.534;2023-11-21T00:34:58;97962.03;;;9.29;46.47
63321;BME280;49449;48.800;9.534;2023-11-21T00:37:26;97964.34;;;9.26;46.25
63321;BME280;49449;48.800;9.534;2023-11-21T00:39:54;97964.91;;;9.28;46.39
63321;BME280;49449;48.800;9.534;2023-11-21T00:42:22;97969.94;;;9.29;46.46
63321;BME280;49449;48.800;9.534;2023-11-21T00:44:51;97960.97;;;9.30;46.83
63321;BME280;49449;48.800;9.534;2023-11-21T00:47:19;97973.69;;;9.34;46.51
63321;BME280;49449;48.800;9.534;2023-11-21T00:49:47;97963.38;;;9.32;46.08
63321;BME280;49449;48.800;9.534;2023-11-21T00:52:15;97951.72;;;9.28;46.18
63321;BME280;49449;48.800;9.534;2023-11-21T00:54:43;97956.31;;;9.21;46.38
63321;BME280;49449;48.800;9.534;2023-11-21T00:57:11;97956.88;;;9.23;46.36
63321;BME280;49449;48.800;9.534;2023-11-21T00:59:39;97954.56;;;9.26;46.38
63321;BME280;49449;48.800;9.534;2023-11-21T01:02:08;97957.78;;;9.28;46.38
63321;BME280;49449;48.800;9.534;2023-11-21T01:04:37;97957.56;;;9.30;46.41
63321;BME280;49449;48.800;9.534;2023-11-21T01:07:05;97959.63;;;9.28;46.51
63321;BME280;49449;48.800;9.534;2023-11-21T01:09:33;97961.81;;;9.31;46.57
63321;BME280;49449;48.800;9.534;2023-11-21T01:12:00;97954.44;;;9.33;46.54
63321;BME280;49449;48.800;9.534;2023-11-21T01:14:28;97957.56;;;9.30;46.49
63321;BME280;49449;48.800;9.534;2023-11-21T01:16:56;97958.13;;;9.32;46.47
63321;BME280;49449;48.800;9.534;2023-11-21T01:19:25;97950.91;;;9.27;46.68
63321;BME280;49449;48.800;9.534;2023-11-21T01:21:53;97953.06;;;9.30;46.64
63321;BME280;49449;48.800;9.534;2023-11-21T01:24:21;97951.03;;;9.33;46.90
63321;BME280;49449;48.800;9.534;2023-11-21T01:26:49;97949.19;;;9.33;46.85
63321;BME280;49449;48.800;9.534;2023-11-21T01:29:17;97952.03;;;9.32;46.87
63321;BME280;49449;48.800;9.534;2023-11-21T01:31:44;97952.50;;;9.28;46.79
63321;BME280;49449;48.800;9.534;2023-11-21T01:34:12;97954.69;;;9.32;46.59
63321;BME280;49449;48.800;9.534;2023-11-21T01:36:42;97953.22;;;9.24;46.74
63321;BME280;49449;48.800;9.534;2023-11-21T01:39:10;97959.16;;;9.31;46.76
63321;BME280;49449;48.800;9.534;2023-11-21T01:41:41;97959.97;;;9.32;46.66
63321;BME280;49449;48.800;9.534;2023-11-21T01:44:11;97954.00;;;9.36;46.66
63321;BME280;49449;48.800;9.534;2023-11-21T01:46:40;97963.50;;;9.37;46.46
63321;BME280;49449;48.800;9.534;2023-11-21T01:49:09;97958.72;;;9.10;45.99
63321;BME280;49449;48.800;9.534;2023-11-21T01:51:41;97965.84;;;8.86;46.80
63321;BME280;49449;48.800;9.534;2023-11-21T01:54:10;97956.38;;;8.97;46.82
63321;BME280;49449;48.800;9.534;2023-11-21T01:56:40;97961.63;;;8.97;46.92
63321;BME280;49449;48.800;9.534;2023-11-21T01:59:08;97961.25;;;9.05;46.63
63321;BME280;49449;48.800;9.534;2023-11-21T02:01:37;97957.94;;;8.98;46.64
63321;BME280;49449;48.800;9.534;2023-11-21T02:04:05;97959.09;;;9.02;46.68
63321;BME280;49449;48.800;9.534;2023-11-21T02:06:35;97968.59;;;9.03;46.67
63321;BME280;49449;48.800;9.534;2023-11-21T02:09:04;97964.78;;;9.11;46.82
63321;BME280;49449;48.800;9.534;2023-11-21T02:11:32;97952.91;;;9.08;46.79
63321;BME280;49449;48.800;9.534;2023-11-21T02:14:01;97959.44;;;9.06;46.85
63321;BME280;49449;48.800;9.534;2023-11-21T02:16:29;97954.03;;;9.13;47.01
63321;BME280;49449;48.800;9.534;2023-11-21T02:19:01;97956.78;;;9.18;47.10
63321;BME280;49449;48.800;9.534;2023-11-21T02:21:30;97960.31;;;9.23;47.00
63321;BME280;49449;48.800;9.534;2023-11-21T02:23:59;97960.63;;;9.27;47.04
63321;BME280;49449;48.800;9.534;2023-11-21T02:26:27;97949.63;;;9.30;47.00
63321;BME280;49449;48.800;9.534;2023-11-21T02:28:55;97950.59;;;9.24;47.07
63321;BME280;49449;48.800;9.534;2023-11-21T02:31:24;97945.41;;;9.29;46.97
63321;BME280;49449;48.800;9.534;2023-11-21T02:33:53;97936.03;;;9.21;47.20
63321;BME280;49449;48.800;9.534;2023-11-21T02:36:21;97932.50;;;9.16;47.26
63321;BME280;49449;48.800;9.534;2023-11-21T02:38:49;97935.00;;;9.10;47.40
63321;BME280;49449;48.800;9.534;2023-11-21T02:41:19;97940.56;;;8.97;47.74
63321;BME280;49449;48.800;9.534;2023-11-21T02:43:46;97943.38;;;9.07;47.62
63321;BME280;49449;48.800;9.534;2023-11-21T02:46:14;97940.91;;;9.01;47.66
63321;BME280;49449;48.800;9.534;2023-11-21T02:48:42;97934.00;;;9.00;47.66
63321;BME280;49449;48.800;9.534;2023-11-21T02:51:10;97934.91;;;9.05;47.65
63321;BME280;49449;48.800;9.534;2023-11-21T02:53:38;97928.41;;;9.08;47.56
63321;BME280;49449;48.800;9.534;2023-11-21T02:56:06;97933.78;;;9.13;47.51
63321;BME280;49449;48.800;9.534;2023-11-21T02:58:36;97936.88;;;9.10;47.55
63321;BME280;49449;48.800;9.534;2023-11-21T03:01:04;97937.19;;;9.14;47.59
63321;BME280;49449;48.800;9.534;2023-11-21T03:03:32;97939.38;;;9.17;47.53
63321;BME280;49449;48.800;9.534;2023-11-21T03:06:00;97938.88;;;9.20;47.56
63321;BME280;49449;48.800;9.534;2023-11-21T03:08:28;97944.25;;;9.25;47.26
63321;BME280;49449;48.800;9.534;2023-11-21T03:10:55;97953.00;;;9.25;47.47
63321;BME280;49449;48.800;9.534;2023-11-21T03:13:23;97943.81;;;9.28;47.44
63321;BME280;49449;48.800;9.534;2023-11-21T03:15:53;97945.56;;;9.10;47.73
63321;BME280;49449;48.800;9.534;2023-11-21T03:18:21;97955.09;;;9.11;47.89
63321;BME280;49449;48.800;9.534;2023-11-21T03:20:51;97944.97;;;9.20;47.69
63321;BME280;49449;48.800;9.534;2023-11-21T03:23:19;97951.50;;;9.18;47.69
63321;BME280;49449;48.800;9.534;2023-11-21T03:25:47;97953.81;;;9.14;47.60
63321;BME280;49449;48.800;9.534;2023-11-21T03:28:15;97955.66;;;9.14;47.61
63321;BME280;49449;48.800;9.534;2023-11-21T03:30:43;97946.47;;;9.16;47.54
63321;BME280;49449;48.800;9.534;2023-11-21T03:33:12;97952.66;;;9.22;47.18
63321;BME280;49449;48.800;9.534;2023-11-21T03:35:40;97951.38;;;9.24;47.39
63321;BME280;49449;48.800;9.534;2023-11-21T03:38:09;97956.19;;;9.27;47.41
63321;BME280;49449;48.800;9.534;2023-11-21T03:40:38;97945.41;;;9.29;47.62
63321;BME280;49449;48.800;9.534;2023-11-21T03:43:06;97949.31;;;9.26;47.39
63321;BME280;49449;48.800;9.534;2023-11-21T03:45:34;97942.13;;;9.22;47.38
63321;BME280;49449;48.800;9.534;2023-11-21T03:48:02;97950.03;;;9.22;47.32
63321;BME280;49449;48.800;9.534;2023-11-21T03:50:31;97945.78;;;9.21;47.49
63321;BME280;49449;48.800;9.534;2023-11-21T03:52:59;97955.03;;;9.23;47.66
63321;BME280;49449;48.800;9.534;2023-11-21T03:55:27;97952.16;;;9.25;47.51
63321;BME280;49449;48.800;9.534;2023-11-21T03:57:55;97955.53;;;9.20;47.44
63321;BME280;49449;48.800;9.534;2023-11-21T04:00:24;97948.31;;;9.16;47.43
63321;BME280;49449;48.800;9.534;2023-11-21T04:02:53;97953.13;;;9.19;47.67
63321;BME280;49449;48.800;9.534;2023-11-21T04:05:21;97945.78;;;9.21;47.52
63321;BME280;49449;48.800;9.534;2023-11-21T04:07:51;97946.22;;;9.18;47.47
63321;BME280;49449;48.800;9.534;2023-11-21T04:10:19;97947.28;;;9.17;47.39
63321;BME280;49449;48.800;9.534;2023-11-21T04:12:46;97951.97;;;9.15;47.47
63321;BME280;49449;48.800;9.534;2023-11-21T04:15:14;97948.53;;;9.14;47.41
63321;BME280;49449;48.800;9.534;2023-11-21T04:17:43;97954.59;;;9.15;47.39
63321;BME280;49449;48.800;9.534;2023-11-21T04:20:12;97960.47;;;9.17;47.53
63321;BME280;49449;48.800;9.534;2023-11-21T04:22:39;97957.56;;;9.18;47.47
63321;BME280;49449;48.800;9.534;2023-11-21T04:25:12;97954.13;;;9.18;47.62
63321;BME280;49449;48.800;9.534;2023-11-21T04:27:42;97952.88;;;9.20;47.50
63321;BME280;49449;48.800;9.534;2023-11-21T04:30:11;97953.91;;;9.19;47.46
63321;BME280;49449;48.800;9.534;2023-11-21T04:32:39;97957.81;;;9.17;47.44
63321;BME280;49449;48.800;9.534;2023-11-21T04:35:07;97958.63;;;9.17;47.47
63321;BME280;49449;48.800;9.534;2023-11-21T04:37:36;97963.66;;;9.19;47.48
63321;BME280;49449;48.800;9.534;2023-11-21T04:40:05;97961.25;;;9.17;47.46
63321;BME280;49449;48.800;9.534;2023-11-21T04:42:35;97968.81;;;9.14;47.40
63321;BME280;49449;48.800;9.534;2023-11-21T04:45:04;97961.94;;;9.13;47.56
63321;BME280;49449;48.800;9.534;2023-11-21T04:47:35;97968.59;;;9.15;47.54
63321;BME280;49449;48.800;9.534;2023-11-21T04:50:04;97974.44;;;9.17;47.56
63321;BME280;49449;48.800;9.534;2023-11-21T04:52:32;97970.06;;;9.11;47.59
63321;BME280;49449;48.800;9.534;2023-11-21T04:55:00;97986.38;;;8.96;47.77
63321;BME280;49449;48.800;9.534;2023-11-21T04:57:29;97991.88;;;8.95;48.07
63321;BME280;49449;48.800;9.534;2023-11-21T04:59:59;97989.00;;;8.96;47.86
63321;BME280;49449;48.800;9.534;2023-11-21T05:02:26;98002.75;;;8.98;47.75
63321;BME280;49449;48.800;9.534;2023-11-21T05:04:55;97995.63;;;8.99;47.93
63321;BME280;49449;48.800;9.534;2023-11-21T05:07:23;97996.69;;;8.98;47.72
63321;BME280;49449;48.800;9.534;2023-11-21T05:09:56;97999.19;;;8.92;47.77
63321;BME280;49449;48.800;9.534;2023-11-21T05:12:24;97997.59;;;8.80;48.02
63321;BME280;49449;48.800;9.534;2023-11-21T05:14:52;97996.66;;;8.86;47.86
63321;BME280;49449;48.800;9.534;2023-11-21T05:17:22;97987.41;;;8.83;47.74
63321;BME280;49449;48.800;9.534;2023-11-21T05:19:49;98001.59;;;8.82;47.97
63321;BME280;49449;48.800;9.534;2023-11-21T05:22:17;97999.66;;;8.89;48.11
63321;BME280;49449;48.800;9.534;2023-11-21T05:24:46;98006.44;;;8.97;47.73
63321;BME280;49449;48.800;9.534;2023-11-21T05:27:14;98006.78;;;9.01;47.82
63321;BME280;49449;48.800;9.534;2023-11-21T05:29:42;98009.75;;;9.04;47.79
63321;BME280;49449;48.800;9.534;2023-11-21T05:32:10;98006.63;;;9.07;47.67
63321;BME280;49449;48.800;9.534;2023-11-21T05:34:39;98014.88;;;9.11;47.61
63321;BME280;49449;48.800;9.534;2023-11-21T05:37:07;98007.31;;;9.15;47.40
63321;BME280;49449;48.800;9.534;2023-11-21T05:39:35;98022.66;;;9.18;47.22
63321;BME280;49449;48.800;9.534;2023-11-21T05:42:03;98015.22;;;9.15;47.31
63321;BME280;49449;48.800;9.534;2023-11-21T05:44:31;98019.13;;;9.12;47.31
63321;BME280;49449;48.800;9.534;2023-11-21T05:46:59;98021.31;;;9.03;47.42
63321;BME280;49449;48.800;9.534;2023-11-21T05:49:27;98012.81;;;8.89;47.81
63321;BME280;49449;48.800;9.534;2023-11-21T05:51:57;98011.56;;;8.92;47.68
63321;BME280;49449;48.800;9.534;2023-11-21T05:54:26;98019.59;;;8.97;47.69
63321;BME280;49449;48.800;9.534;2023-11-21T05:56:55;98024.38;;;9.00;47.71
63321;BME280;49449;48.800;9.534;2023-11-21T05:59:22;98026.78;;;9.02;47.62
63321;BME280;49449;48.800;9.534;2023-11-21T06:01:50;98029.44;;;9.02;47.66
63321;BME280;49449;48.800;9.534;2023-11-21T06:04:18;98027.13;;;9.05;47.58
63321;BME280;49449;48.800;9.534;2023-11-21T06:06:51;98030.34;;;9.07;47.50
63321;BME280;49449;48.800;9.534;2023-11-21T06:09:20;98038.25;;;9.07;47.24
63321;BME280;49449;48.800;9.534;2023-11-21T06:11:49;98032.19;;;9.07;47.35
63321;BME280;49449;48.800;9.534;2023-11-21T06:14:16;98038.59;;;8.99;47.45
63321;BME280;49449;48.800;9.534;2023-11-21T06:16:44;98043.31;;;8.97;47.51
63321;BME280;49449;48.800;9.534;2023-11-21T06:19:12;98047.75;;;8.97;47.63
63321;BME280;49449;48.800;9.534;2023-11-21T06:21:45;98053.38;;;9.00;47.52
63321;BME280;49449;48.800;9.534;2023-11-21T06:24:13;98054.75;;;9.03;47.30
63321;BME280;49449;48.800;9.534;2023-11-21T06:26:43;98055.66;;;8.97;47.28
63321;BME280;49449;48.800;9.534;2023-11-21T06:29:11;98051.22;;;8.97;47.27
63321;BME280;49449;48.800;9.534;2023-11-21T06:31:39;98057.50;;;8.96;47.38
63321;BME280;49449;48.800;9.534;2023-11-21T06:34:07;98051.22;;;8.97;47.36
63321;BME280;49449;48.800;9.534;2023-11-21T06:36:36;98060.47;;;9.00;47.54
63321;BME280;49449;48.800;9.534;2023-11-21T06:39:04;98058.88;;;8.99;47.42
63321;BME280;49449;48.800;9.534;2023-11-21T06:41:35;98059.34;;;8.96;47.62
63321;BME280;49449;48.800;9.534;2023-11-21T06:44:06;98055.44;;;8.98;47.59
63321;BME280;49449;48.800;9.534;2023-11-21T06:46:35;98055.75;;;8.90;47.63
63321;BME280;49449;48.800;9.534;2023-11-21T06:49:04;98059.09;;;8.85;47.82
63321;BME280;49449;48.800;9.534;2023-11-21T06:51:33;98066.91;;;8.92;47.63
63321;BME280;49449;48.800;9.534;2023-11-21T06:54:00;98069.06;;;8.95;47.59
63321;BME280;49449;48.800;9.534;2023-11-21T06:56:28;98074.94;;;8.97;47.51
63321;BME280;49449;48.800;9.534;2023-11-21T06:58:56;98076.97;;;8.95;47.63
63321;BME280;49449;48.800;9.534;2023-11-21T07:01:25;98077.44;;;8.92;47.72
63321;BME280;49449;48.800;9.534;2023-11-21T07:03:53;98088.44;;;9.01;47.53
63321;BME280;49449;48.800;9.534;2023-11-21T07:06:21;98089.59;;;9.05;47.40
63321;BME280;49449;48.800;9.534;2023-11-21T07:08:49;98089.13;;;9.08;47.31
63321;BME280;49449;48.800;9.534;2023-11-21T07:11:16;98094.19;;;9.09;47.58
63321;BME280;49449;48.800;9.534;2023-11-21T07:13:44;98091.06;;;9.13;47.51
63321;BME280;49449;48.800;9.534;2023-11-21T07:16:12;98094.88;;;9.17;47.67
63321;BME280;49449;48.800;9.534;2023-11-21T07:18:42;98092.47;;;9.15;47.76
63321;BME280;49449;48.800;9.534;2023-11-21T07:21:10;98093.81;;;9.18;47.74
63321;BME280;49449;48.800;9.534;2023-11-21T07:23:38;98106.91;;;9.24;47.59
63321;BME280;49449;48.800;9.534;2023-11-21T07:26:07;98101.41;;;9.26;47.68
63321;BME280;49449;48.800;9.534;2023-11-21T07:28:37;98104.59;;;9.28;47.54
63321;BME280;49449;48.800;9.534;2023-11-21T07:31:05;98103.94;;;9.33;47.40
63321;BME280;49449;48.800;9.534;2023-11-21T07:33:33;98104.50;;;9.35;47.22
63321;BME280;49449;48.800;9.534;2023-11-21T07:36:02;98110.00;;;9.33;47.22
63321;BME280;49449;48.800;9.534;2023-11-21T07:38:30;98113.09;;;9.30;47.18
63321;BME280;49449;48.800;9.534;2023-11-21T07:40:59;98124.41;;;9.30;46.84
63321;BME280;49449;48.800;9.534;2023-11-21T07:43:28;98122.25;;;9.27;46.93
63321;BME280;49449;48.800;9.534;2023-11-21T07:46:01;98128.66;;;9.20;47.00
63321;BME280;49449;48.800;9.534;2023-11-21T07:48:30;98131.97;;;9.03;47.67
63321;BME280;49449;48.800;9.534;2023-11-21T07:50:58;98131.41;;;9.01;47.66
63321;BME280;49449;48.800;9.534;2023-11-21T07:53:27;98139.31;;;9.01;47.61
63321;BME280;49449;48.800;9.534;2023-11-21T07:55:56;98139.88;;;9.03;47.55
63321;BME280;49449;48.800;9.534;2023-11-21T07:58:24;98140.56;;;9.10;47.43
63321;BME280;49449;48.800;9.534;2023-11-21T08:00:52;98142.88;;;9.19;47.41
63321;BME280;49449;48.800;9.534;2023-11-21T08:03:20;98140.47;;;9.17;47.24
63321;BME280;49449;48.800;9.534;2023-11-21T08:05:48;98146.09;;;9.21;47.26
63321;BME280;49449;48.800;9.534;2023-11-21T08:08:16;98141.97;;;9.25;47.22
63321;BME280;49449;48.800;9.534;2023-11-21T08:10:46;98144.94;;;9.28;47.50
63321;BME280;49449;48.800;9.534;2023-11-21T08:13:23;98148.97;;;9.31;47.11
63321;BME280;49449;48.800;9.534;2023-11-21T08:15:54;98137.84;;;9.29;47.11
63321;BME280;49449;48.800;9.534;2023-11-21T08:18:22;98143.25;;;9.34;46.84
63321;BME280;49449;48.800;9.534;2023-11-21T08:20:51;98146.78;;;9.40;46.68
63321;BME280;49449;48.800;9.534;2023-11-21T08:23:19;98139.22;;;9.43;46.73
63321;BME280;49449;48.800;9.534;2023-11-21T08:25:48;98140.59;;;9.46;46.67
63321;BME280;49449;48.800;9.534;2023-11-21T08:28:15;98139.56;;;9.47;46.69
63321;BME280;49449;48.800;9.534;2023-11-21T08:30:43;98143.78;;;9.48;46.54
63321;BME280;49449;48.800;9.534;2023-11-21T08:33:11;98145.97;;;9.51;46.79
63321;BME280;49449;48.800;9.534;2023-11-21T08:35:39;98145.19;;;9.51;46.89
63321;BME280;49449;48.800;9.534;2023-11-21T08:38:07;98147.94;;;9.56;47.01
63321;BME280;49449;48.800;9.534;2023-11-21T08:40:36;98151.16;;;9.58;46.96
63321;BME280;49449;48.800;9.534;2023-11-21T08:43:05;98160.53;;;9.65;46.91
63321;BME280;49449;48.800;9.534;2023-11-21T08:45:33;98154.56;;;9.70;46.87
63321;BME280;49449;48.800;9.534;2023-11-21T08:48:01;98160.53;;;9.77;46.82
63321;BME280;49449;48.800;9.534;2023-11-21T08:50:29;98163.72;;;9.79;46.78
63321;BME280;49449;48.800;9.534;2023-11-21T08:52:57;98156.06;;;9.78;46.84
63321;BME280;49449;48.800;9.534;2023-11-21T08:55:24;98162.72;;;9.80;46.76
63321;BME280;49449;48.800;9.534;2023-11-21T08:57:52;98155.38;;;9.82;46.71
63321;BME280;49449;48.800;9.534;2023-11-21T09:00:21;98165.72;;;9.84;46.48
63321;BME280;49449;48.800;9.534;2023-11-21T09:02:50;98166.28;;;9.86;46.73
63321;BME280;49449;48.800;9.534;2023-11-21T09:05:18;98173.75;;;9.89;46.40
63321;BME280;49449;48.800;9.534;2023-11-21T09:07:47;98175.34;;;9.90;46.39
63321;BME280;49449;48.800;9.534;2023-11-21T09:10:15;98171.34;;;9.88;46.51
63321;BME280;49449;48.800;9.534;2023-11-21T09:12:43;98181.44;;;9.91;46.43
63321;BME280;49449;48.800;9.534;2023-11-21T09:15:11;98177.53;;;9.93;46.51
63321;BME280;49449;48.800;9.534;2023-11-21T09:17:40;98187.38;;;9.98;46.28
63321;BME280;49449;48.800;9.534;2023-11-21T09:20:10;98190.38;;;10.01;46.29
63321;BME280;49449;48.800;9.534;2023-11-21T09:22:38;98187.50;;;10.03;46.33
63321;BME280;49449;48.800;9.534;2023-11-21T09:25:06;98181.97;;;10.04;46.19
63321;BME280;49449;48.800;9.534;2023-11-21T09:27:35;98184.41;;;9.94;46.40
63321;BME280;49449;48.800;9.534;2023-11-21T09:30:03;98188.63;;;9.95;46.04
63321;BME280;49449;48.800;9.534;2023-11-21T09:32:32;98194.25;;;9.99;46.46
63321;BME280;49449;48.800;9.534;2023-11-21T09:35:01;98191.28;;;10.07;46.54
63321;BME280;49449;48.800;9.534;2023-11-21T09:37:30;98193.78;;;10.14;46.54
63321;BME280;49449;48.800;9.534;2023-11-21T09:39:57;98199.50;;;10.22;45.93
63321;BME280;49449;48.800;9.534;2023-11-21T09:42:30;98197.44;;;10.24;45.73
63321;BME280;49449;48.800;9.534;2023-11-21T09:45:03;98198.34;;;10.30;45.74
63321;BME280;49449;48.800;9.534;2023-11-21T09:47:35;98199.13;;;10.31;45.56
63321;BME280;49449;48.800;9.534;2023-11-21T09:50:09;98202.09;;;10.34;45.50
63321;BME280;49449;48.800;9.534;2023-11-21T09:52:41;98212.66;;;10.34;45.02
63321;BME280;49449;48.800;9.534;2023-11-21T09:55:16;98212.13;;;10.20;45.22
63321;BME280;49449;48.800;9.534;2023-11-21T09:57:47;98211.44;;;10.13;45.29
63321;BME280;49449;48.800;9.534;2023-11-21T10:00:17;98204.56;;;10.12;44.77
63321;BME280;49449;48.800;9.534;2023-11-21T10:02:50;98214.56;;;10.10;45.27
63321;BME280;49449;48.800;9.534;2023-11-21T10:05:21;98210.88;;;10.23;45.38
63321;BME280;49449;48.800;9.534;2023-11-21T10:07:50;98213.38;;;10.30;45.40
63321;BME280;49449;48.800;9.534;2023-11-21T10:10:19;98213.72;;;10.21;44.45
63321;BME280;49449;48.800;9.534;2023-11-21T10:12:50;98214.19;;;10.18;44.87
63321;BME280;49449;48.800;9.534;2023-11-21T10:15:21;98208.91;;;10.18;45.12
63321;BME280;49449;48.800;9.534;2023-11-21T10:17:49;98208.84;;;10.01;45.66
63321;BME280;49449;48.800;9.534;2023-11-21T10:20:21;98221.81;;;10.03;45.24
63321;BME280;49449;48.800;9.534;2023-11-21T10:22:50;98217.56;;;10.02;45.40
63321;BME280;49449;48.800;9.534;2023-11-21T10:25:18;98221.09;;;10.08;45.16
63321;BME280;49449;48.800;9.534;2023-11-21T10:27:47;98218.00;;;9.99;45.18
63321;BME280;49449;48.800;9.534;2023-11-21T10:30:17;98214.56;;;9.86;45.27
63321;BME280;49449;48.800;9.534;2023-11-21T10:32:46;98220.88;;;9.74;45.52
63321;BME280;49449;48.800;9.534;2023-11-21T10:35:14;98216.19;;;9.88;45.79
63321;BME280;49449;48.800;9.534;2023-11-21T10:37:43;98213.19;;;9.96;45.17
63321;BME280;49449;48.800;9.534;2023-11-21T10:40:11;98213.91;;;10.03;45.32
63321;BME280;49449;48.800;9.534;2023-11-21T10:42:39;98213.06;;;10.14;45.38
63321;BME280;49449;48.800;9.534;2023-11-21T10:45:09;98212.22;;;10.25;44.83
63321;BME280;49449;48.800;9.534;2023-11-21T10:47:40;98220.53;;;10.17;45.04
63321;BME280;49449;48.800;9.534;2023-11-21T10:50:09;98212.56;;;10.29;45.25
63321;BME280;49449;48.800;9.534;2023-11-21T10:52:39;98214.63;;;10.39;44.43
63321;BME280;49449;48.800;9.534;2023-11-21T10:55:20;98223.78;;;10.36;44.45
63321;BME280;49449;48.800;9.534;2023-11-21T10:57:52;98217.59;;;10.31;44.14
63321;BME280;49449;48.800;9.534;2023-11-21T11:00:21;98216.59;;;10.20;45.00
63321;BME280;49449;48.800;9.534;2023-11-21T11:02:51;98218.44;;;10.31;44.92
63321;BME280;49449;48.800;9.534;2023-11-21T11:05:22;98225.06;;;10.34;44.90
63321;BME280;49449;48.800;9.534;2023-11-21T11:07:51;98219.56;;;10.35;44.89
63321;BME280;49449;48.800;9.534;2023-11-21T11:10:22;98223.91;;;10.41;44.59
63321;BME280;49449;48.800;9.534;2023-11-21T11:12:53;98215.41;;;10.39;44.74
63321;BME280;49449;48.800;9.534;2023-11-21T11:15:22;98219.44;;;10.42;44.45
63321;BME280;49449;48.800;9.534;2023-11-21T11:17:50;98217.34;;;10.44;44.65
63321;BME280;49449;48.800;9.534;2023-11-21T11:20:24;98216.78;;;10.42;44.74
63321;BME280;49449;48.800;9.534;2023-11-21T11:23:04;98218.63;;;10.41;44.82
63321;BME280;49449;48.800;9.534;2023-11-21T11:26:05;98219.09;;;10.38;45.34
63321;BME280;49449;48.800;9.534;2023-11-21T11:28:41;98226.44;;;10.36;45.43
63321;BME280;49449;48.800;9.534;2023-11-21T11:31:17;98230.91;;;10.36;45.41
63321;BME280;49449;48.800;9.534;2023-11-21T11:33:55;98217.72;;;10.36;45.52
63321;BME280;49449;48.800;9.534;2023-11-21T11:36:28;98220.59;;;10.34;45.40
63321;BME280;49449;48.800;9.534;2023-11-21T11:38:57;98214.31;;;10.23;45.91
63321;BME280;49449;48.800;9.534;2023-11-21T11:41:27;98215.19;;;10.29;45.77
63321;BME280;49449;48.800;9.534;2023-11-21T11:43:56;98220.47;;;10.29;45.70
63321;BME280;49449;48.800;9.534;2023-11-21T11:46:41;98224.50;;;10.32;45.79
63321;BME280;49449;48.800;9.534;2023-11-21T11:49:23;98227.50;;;10.23;45.99
63321;BME280;49449;48.800;9.534;2023-11-21T11:54:53;98221.53;;;10.28;46.13
63321;BME280;49449;48.800;9.534;2023-11-21T11:57:24;98226.59;;;10.30;46.07
63321;BME280;49449;48.800;9.534;2023-11-21T12:00:16;98223.94;;;10.30;46.23
63321;BME280;49449;48.800;9.534;2023-11-21T12:02:47;98225.88;;;10.34;45.61
63321;BME280;49449;48.800;9.534;2023-11-21T12:05:16;98229.22;;;10.30;45.84
63321;BME280;49449;48.800;9.534;2023-11-21T12:07:47;98228.84;;;10.38;45.82
63321;BME280;49449;48.800;9.534;2023-11-21T12:10:16;98230.56;;;10.44;46.00
63321;BME280;49449;48.800;9.534;2023-11-21T12:12:47;98234.09;;;10.50;45.51
63321;BME280;49449;48.800;9.534;2023-11-21T12:15:16;98234.78;;;10.57;45.80
63321;BME280;49449;48.800;9.534;2023-11-21T12:17:45;98235.34;;;10.59;45.83
63321;BME280;49449;48.800;9.534;2023-11-21T12:20:14;98232.47;;;10.60;45.53
63321;BME280;49449;48.800;9.534;2023-11-21T12:22:45;98234.97;;;10.67;45.70
63321;BME280;49449;48.800;9.534;2023-11-21T12:25:15;98234.97;;;10.67;45.63
63321;BME280;49449;48.800;9.534;2023-11-21T12:27:47;98235.75;;;10.68;45.88
63321;BME280;49449;48.800;9.534;2023-11-21T12:30:17;98233.91;;;10.68;45.84
63321;BME280;49449;48.800;9.534;2023-11-21T12:32:48;98244.66;;;10.50;46.17
63321;BME280;49449;48.800;9.534;2023-11-21T12:35:18;98239.25;;;10.56;46.03
63321;BME280;49449;48.800;9.534;2023-11-21T12:37:48;98242.00;;;10.61;46.34
63321;BME280;49449;48.800;9.534;2023-11-21T12:40:17;98246.13;;;10.57;45.93
63321;BME280;49449;48.800;9.534;2023-11-21T12:42:47;98240.75;;;10.52;45.87
63321;BME280;49449;48.800;9.534;2023-11-21T12:45:21;98247.22;;;10.33;46.12
63321;BME280;49449;48.800;9.534;2023-11-21T12:47:50;98251.59;;;10.39;46.33
63321;BME280;49449;48.800;9.534;2023-11-21T12:50:19;98254.91;;;10.46;46.20
63321;BME280;49449;48.800;9.534;2023-11-21T12:52:51;98249.72;;;10.51;46.06
63321;BME280;49449;48.800;9.534;2023-11-21T12:55:21;98260.94;;;10.58;45.99
63321;BME280;49449;48.800;9.534;2023-11-21T12:57:52;98243.47;;;10.57;46.02
63321;BME280;49449;48.800;9.534;2023-11-21T13:00:29;98249.94;;;10.61;45.81
63321;BME280;49449;48.800;9.534;2023-11-21T13:02:59;98252.66;;;10.67;45.86
63321;BME280;49449;48.800;9.534;2023-11-21T13:05:28;98254.81;;;10.70;45.64
63321;BME280;49449;48.800;9.534;2023-11-21T13:07:57;98249.16;;;10.78;45.80
63321;BME280;49449;48.800;9.534;2023-11-21T13:10:27;98243.75;;;10.85;45.89
63321;BME280;49449;48.800;9.534;2023-11-21T13:12:59;98241.00;;;10.91;45.74
63321;BME280;49449;48.800;9.534;2023-11-21T13:15:27;98243.47;;;10.98;45.61
63321;BME280;49449;48.800;9.534;2023-11-21T13:17:57;98246.44;;;11.02;45.60
63321;BME280;49449;48.800;9.534;2023-11-21T13:20:25;98244.94;;;11.06;45.61